CCA764 VHHH-ZBAD
Flight info
| Callsign | CCA764 |
|---|---|
| Flight time | N/A |
| Altitude | 34100 |
| Route | BEKOL A461 YIN/K0874S1010 A461 BUBDA/K0870S1040 W56 REBIS/K0867S1070 W56 ORODO/K0854S1100 W62 KARVU/K0854S1070 W62 IGDID/K0854S1100 W62 TEKIL/K0852S1070 G212 BELAX BELAX5L |
| Aircraft | B738/M-SDGIJ1LRWY/SB1 |
Departure
| Time | N/A |
|---|---|
| Airport | Hong Kong International Airport (VHHH) |
Arrival
| Time | 2026-04-24 20:25 |
|---|---|
| Airport | Beijing Daxing International Airport (ZBAD) |
| Time | Latitude | Longitude | Altitude | Speed | Heading |
|---|---|---|---|---|---|
| 2026-04-24 18:54 | 30.50912 | 113.87811 | 33131 ft | 471 kts | 18° |
| 2026-04-24 18:55 | 30.60052 | 113.92416 | 33138 ft | 472 kts | 18° |
| 2026-04-24 18:56 | 30.66173 | 113.95493 | 33146 ft | 471 kts | 17° |
| 2026-04-24 18:56 | 30.72264 | 113.98479 | 33151 ft | 472 kts | 18° |
| 2026-04-24 18:57 | 30.78276 | 114.01759 | 33163 ft | 475 kts | 20° |
| 2026-04-24 18:57 | 30.84306 | 114.05125 | 33144 ft | 474 kts | 20° |
| 2026-04-24 18:58 | 30.90325 | 114.08424 | 33165 ft | 475 kts | 20° |
| 2026-04-24 18:58 | 30.96399 | 114.11730 | 33161 ft | 474 kts | 20° |
| 2026-04-24 18:59 | 31.02427 | 114.15011 | 33157 ft | 474 kts | 20° |
| 2026-04-24 18:59 | 31.08457 | 114.18288 | 33147 ft | 474 kts | 20° |
| 2026-04-24 19:00 | 31.14380 | 114.21510 | 33153 ft | 474 kts | 20° |
| 2026-04-24 19:00 | 31.20384 | 114.24779 | 33158 ft | 473 kts | 20° |
| 2026-04-24 19:01 | 31.26367 | 114.28046 | 33153 ft | 470 kts | 20° |
| 2026-04-24 19:01 | 31.32393 | 114.31243 | 33152 ft | 471 kts | 17° |
| 2026-04-24 19:02 | 31.37662 | 114.33010 | 33154 ft | 461 kts | 4° |
| 2026-04-24 19:02 | 31.45129 | 114.33713 | 33147 ft | 456 kts | 357° |
| 2026-04-24 19:03 | 31.51552 | 114.33852 | 33154 ft | 455 kts | 356° |
| 2026-04-24 19:03 | 31.57961 | 114.33952 | 33159 ft | 455 kts | 356° |
| 2026-04-24 19:04 | 31.64375 | 114.34087 | 33156 ft | 455 kts | 356° |
| 2026-04-24 19:04 | 31.70756 | 114.34253 | 33154 ft | 456 kts | 357° |
| 2026-04-24 19:05 | 31.77169 | 114.34435 | 33152 ft | 455 kts | 357° |
| 2026-04-24 19:05 | 31.83620 | 114.34628 | 33148 ft | 455 kts | 357° |
| 2026-04-24 19:06 | 31.89961 | 114.34822 | 33156 ft | 455 kts | 358° |
| 2026-04-24 19:06 | 31.96325 | 114.35014 | 33155 ft | 456 kts | 358° |
| 2026-04-24 19:07 | 32.02780 | 114.35210 | 33147 ft | 454 kts | 358° |
| 2026-04-24 19:07 | 32.08094 | 114.35372 | 33155 ft | 456 kts | 358° |
| 2026-04-24 19:08 | 32.15526 | 114.35598 | 33133 ft | 455 kts | 358° |
| 2026-04-24 19:08 | 32.21946 | 114.35792 | 33126 ft | 455 kts | 358° |
| 2026-04-24 19:09 | 32.28291 | 114.36029 | 33137 ft | 456 kts | 359° |
| 2026-04-24 19:09 | 32.34698 | 114.36571 | 33139 ft | 456 kts | 1° |
| 2026-04-24 19:10 | 32.41058 | 114.37214 | 33132 ft | 456 kts | 1° |
| 2026-04-24 19:10 | 32.47486 | 114.37853 | 33125 ft | 455 kts | 1° |
| 2026-04-24 19:11 | 32.53880 | 114.38462 | 33125 ft | 455 kts | 1° |
| 2026-04-24 19:11 | 32.60239 | 114.39053 | 33133 ft | 457 kts | 1° |
| 2026-04-24 19:12 | 32.66677 | 114.39648 | 33127 ft | 455 kts | 1° |
| 2026-04-24 19:12 | 32.73044 | 114.40240 | 33126 ft | 455 kts | 1° |
| 2026-04-24 19:13 | 32.78378 | 114.40736 | 33122 ft | 455 kts | 1° |
| 2026-04-24 19:13 | 32.85806 | 114.41428 | 33123 ft | 455 kts | 1° |
| 2026-04-24 19:14 | 32.92201 | 114.42028 | 33122 ft | 455 kts | 1° |
| 2026-04-24 19:14 | 32.98557 | 114.42623 | 33114 ft | 454 kts | 1° |
| 2026-04-24 19:15 | 33.04928 | 114.43220 | 33120 ft | 456 kts | 1° |
| 2026-04-24 19:15 | 33.11321 | 114.43818 | 33124 ft | 455 kts | 1° |
| 2026-04-24 19:16 | 33.20832 | 114.44710 | 33127 ft | 454 kts | 1° |
| 2026-04-24 19:16 | 33.27183 | 114.45309 | 33128 ft | 454 kts | 1° |
| 2026-04-24 19:17 | 33.33524 | 114.45908 | 33124 ft | 453 kts | 1° |
| 2026-04-24 19:17 | 33.39870 | 114.46506 | 33127 ft | 453 kts | 1° |
| 2026-04-24 19:18 | 33.46256 | 114.47109 | 33126 ft | 453 kts | 1° |
| 2026-04-24 19:18 | 33.52587 | 114.47706 | 33124 ft | 453 kts | 1° |
| 2026-04-24 19:19 | 33.58951 | 114.48306 | 33122 ft | 452 kts | 2° |
| 2026-04-24 19:19 | 33.65256 | 114.48901 | 33124 ft | 452 kts | 2° |
| 2026-04-24 19:20 | 33.71562 | 114.49490 | 33124 ft | 451 kts | 1° |
| 2026-04-24 19:20 | 33.77891 | 114.50081 | 33128 ft | 452 kts | 2° |
| 2026-04-24 19:21 | 33.84209 | 114.50673 | 33128 ft | 451 kts | 2° |
| 2026-04-24 19:21 | 33.90516 | 114.51265 | 33123 ft | 451 kts | 2° |
| 2026-04-24 19:22 | 33.96837 | 114.51860 | 33122 ft | 450 kts | 2° |
| 2026-04-24 19:22 | 34.03168 | 114.52454 | 33125 ft | 450 kts | 2° |
| 2026-04-24 19:23 | 34.09477 | 114.53052 | 33124 ft | 450 kts | 2° |
| 2026-04-24 19:23 | 34.15776 | 114.53649 | 33125 ft | 449 kts | 2° |
| 2026-04-24 19:24 | 34.22020 | 114.54240 | 33121 ft | 448 kts | 2° |
| 2026-04-24 19:24 | 34.28272 | 114.54836 | 33121 ft | 448 kts | 2° |
| 2026-04-24 19:25 | 34.34550 | 114.55434 | 33115 ft | 447 kts | 2° |
| 2026-04-24 19:25 | 34.40838 | 114.56034 | 33115 ft | 448 kts | 2° |
| 2026-04-24 19:26 | 34.47086 | 114.56632 | 33110 ft | 447 kts | 2° |
| 2026-04-24 19:26 | 34.53307 | 114.57223 | 33112 ft | 446 kts | 2° |
| 2026-04-24 19:27 | 34.59590 | 114.57817 | 33116 ft | 446 kts | 2° |
| 2026-04-24 19:27 | 34.65826 | 114.58406 | 33115 ft | 445 kts | 2° |
| 2026-04-24 19:28 | 34.72026 | 114.58997 | 33112 ft | 444 kts | 2° |
| 2026-04-24 19:28 | 34.78286 | 114.59597 | 33113 ft | 445 kts | 2° |
| 2026-04-24 19:29 | 34.87574 | 114.60485 | 33114 ft | 443 kts | 2° |
| 2026-04-24 19:30 | 34.93747 | 114.61073 | 33115 ft | 443 kts | 2° |
| 2026-04-24 19:30 | 34.99929 | 114.61662 | 33118 ft | 443 kts | 2° |
| 2026-04-24 19:31 | 35.06112 | 114.62257 | 33112 ft | 442 kts | 2° |
| 2026-04-24 19:31 | 35.12208 | 114.62843 | 33110 ft | 443 kts | 2° |
| 2026-04-24 19:32 | 35.18313 | 114.63428 | 33109 ft | 442 kts | 2° |
| 2026-04-24 19:32 | 35.24471 | 114.64020 | 33108 ft | 442 kts | 2° |
| 2026-04-24 19:33 | 35.30689 | 114.64621 | 33107 ft | 441 kts | 2° |
| 2026-04-24 19:33 | 35.36821 | 114.65213 | 33108 ft | 441 kts | 2° |
| 2026-04-24 19:34 | 35.42738 | 114.65785 | 33106 ft | 441 kts | 2° |
| 2026-04-24 19:34 | 35.48982 | 114.66390 | 33107 ft | 442 kts | 2° |
| 2026-04-24 19:35 | 35.55233 | 114.66998 | 33107 ft | 441 kts | 2° |
| 2026-04-24 19:35 | 35.61400 | 114.67597 | 33108 ft | 441 kts | 2° |
| 2026-04-24 19:36 | 35.67561 | 114.68195 | 33104 ft | 441 kts | 2° |
| 2026-04-24 19:36 | 35.73709 | 114.68796 | 33098 ft | 440 kts | 2° |
| 2026-04-24 19:37 | 35.79843 | 114.69395 | 33098 ft | 440 kts | 2° |
| 2026-04-24 19:37 | 35.86010 | 114.70002 | 33100 ft | 440 kts | 2° |
| 2026-04-24 19:38 | 35.92133 | 114.70605 | 33098 ft | 440 kts | 2° |
| 2026-04-24 19:38 | 35.98326 | 114.71209 | 33096 ft | 440 kts | 2° |
| 2026-04-24 19:39 | 36.04453 | 114.71809 | 33095 ft | 439 kts | 2° |
| 2026-04-24 19:39 | 36.10612 | 114.72415 | 33092 ft | 438 kts | 2° |
| 2026-04-24 19:40 | 36.16737 | 114.73014 | 33093 ft | 438 kts | 2° |
| 2026-04-24 19:40 | 36.22894 | 114.73618 | 33093 ft | 438 kts | 2° |
| 2026-04-24 19:41 | 36.29012 | 114.74218 | 33091 ft | 438 kts | 2° |
| 2026-04-24 19:41 | 36.35195 | 114.74835 | 33087 ft | 437 kts | 2° |
| 2026-04-24 19:42 | 36.41308 | 114.75061 | 33087 ft | 437 kts | 357° |
| 2026-04-24 19:42 | 36.47401 | 114.74786 | 33089 ft | 436 kts | 356° |
| 2026-04-24 19:43 | 36.53529 | 114.74427 | 33081 ft | 437 kts | 356° |
| 2026-04-24 19:43 | 36.59607 | 114.74098 | 33079 ft | 437 kts | 356° |
| 2026-04-24 19:44 | 36.65717 | 114.73795 | 33076 ft | 436 kts | 356° |
| 2026-04-24 19:44 | 36.71831 | 114.73516 | 33071 ft | 436 kts | 357° |
| 2026-04-24 19:45 | 36.77914 | 114.73933 | 33072 ft | 439 kts | 10° |
| 2026-04-24 19:45 | 36.83783 | 114.76481 | 33070 ft | 443 kts | 21° |
| 2026-04-24 19:46 | 36.89426 | 114.79759 | 33071 ft | 444 kts | 23° |
| 2026-04-24 19:46 | 36.95056 | 114.83152 | 33074 ft | 444 kts | 24° |
| 2026-04-24 19:47 | 37.00672 | 114.86509 | 33066 ft | 444 kts | 23° |
| 2026-04-24 19:47 | 37.06277 | 114.89828 | 33065 ft | 443 kts | 23° |
| 2026-04-24 19:48 | 37.11877 | 114.93123 | 33059 ft | 444 kts | 23° |
| 2026-04-24 19:48 | 37.20351 | 114.98099 | 33047 ft | 443 kts | 23° |
| 2026-04-24 19:49 | 37.31581 | 115.04704 | 33045 ft | 441 kts | 23° |
| 2026-04-24 19:50 | 37.42739 | 115.11287 | 33048 ft | 439 kts | 23° |
| 2026-04-24 19:51 | 37.51118 | 115.16244 | 33048 ft | 439 kts | 23° |
| 2026-04-24 19:52 | 37.59482 | 115.21200 | 33053 ft | 439 kts | 23° |
| 2026-04-24 19:52 | 37.65033 | 115.24498 | 33055 ft | 438 kts | 23° |
| 2026-04-24 19:53 | 37.70572 | 115.27792 | 33058 ft | 438 kts | 23° |
| 2026-04-24 19:54 | 37.79057 | 115.32449 | 33056 ft | 435 kts | 15° |
| 2026-04-24 19:54 | 37.85085 | 115.33378 | 33049 ft | 435 kts | 358° |
| 2026-04-24 19:55 | 37.89109 | 115.33054 | 33049 ft | 433 kts | 354° |
| 2026-04-24 19:55 | 37.97150 | 115.31906 | 33051 ft | 433 kts | 353° |
| 2026-04-24 19:56 | 38.03225 | 115.30982 | 33048 ft | 433 kts | 353° |
| 2026-04-24 19:56 | 38.09225 | 115.30096 | 33052 ft | 432 kts | 353° |
| 2026-04-24 19:57 | 38.15027 | 115.29237 | 33048 ft | 432 kts | 353° |
| 2026-04-24 19:57 | 38.20412 | 115.28432 | 33053 ft | 431 kts | 354° |
| 2026-04-24 19:58 | 38.26478 | 115.27528 | 33050 ft | 430 kts | 354° |
| 2026-04-24 19:58 | 38.32455 | 115.26641 | 33049 ft | 431 kts | 354° |
| 2026-04-24 19:59 | 38.38428 | 115.25756 | 33052 ft | 428 kts | 354° |
| 2026-04-24 19:59 | 38.44441 | 115.24867 | 33049 ft | 429 kts | 354° |
| 2026-04-24 20:00 | 38.50415 | 115.24392 | 33046 ft | 426 kts | 4° |
| 2026-04-24 20:00 | 38.53382 | 115.25012 | 33047 ft | 428 kts | 15° |
| 2026-04-24 20:00 | 38.56222 | 115.26318 | 33045 ft | 428 kts | 24° |
| 2026-04-24 20:01 | 38.61420 | 115.30140 | 33046 ft | 428 kts | 35° |
| 2026-04-24 20:01 | 38.65503 | 115.35712 | 33049 ft | 434 kts | 54° |
| 2026-04-24 20:02 | 38.67983 | 115.41427 | 33047 ft | 436 kts | 60° |
| 2026-04-24 20:02 | 38.71022 | 115.49694 | 33038 ft | 437 kts | 62° |
| 2026-04-24 20:03 | 38.73754 | 115.56659 | 33029 ft | 435 kts | 58° |
| 2026-04-24 20:03 | 38.75248 | 115.59991 | 32514 ft | 436 kts | 57° |
| 2026-04-24 20:03 | 38.76807 | 115.63348 | 31700 ft | 438 kts | 56° |
| 2026-04-24 20:03 | 38.78379 | 115.66687 | 30887 ft | 439 kts | 57° |
| 2026-04-24 20:04 | 38.79956 | 115.70035 | 29978 ft | 442 kts | 57° |
| 2026-04-24 20:04 | 38.81543 | 115.73412 | 28951 ft | 446 kts | 57° |
| 2026-04-24 20:04 | 38.83170 | 115.76890 | 27783 ft | 453 kts | 57° |
| 2026-04-24 20:04 | 38.84802 | 115.80399 | 26637 ft | 458 kts | 57° |
| 2026-04-24 20:05 | 38.86448 | 115.83955 | 25717 ft | 457 kts | 58° |
| 2026-04-24 20:05 | 38.88054 | 115.87437 | 25063 ft | 451 kts | 58° |
| 2026-04-24 20:05 | 38.89653 | 115.90914 | 24290 ft | 447 kts | 58° |
| 2026-04-24 20:05 | 38.91241 | 115.94373 | 23591 ft | 442 kts | 58° |
| 2026-04-24 20:06 | 38.92806 | 115.97791 | 22997 ft | 435 kts | 58° |
| 2026-04-24 20:06 | 38.94338 | 116.01139 | 22422 ft | 428 kts | 58° |
| 2026-04-24 20:06 | 38.95926 | 116.04370 | 21860 ft | 420 kts | 53° |
| 2026-04-24 20:06 | 38.97728 | 116.07285 | 21317 ft | 412 kts | 45° |
| 2026-04-24 20:07 | 38.99130 | 116.09014 | 20948 ft | 407 kts | 39° |
| 2026-04-24 20:07 | 39.02213 | 116.11832 | 20240 ft | 413 kts | 30° |
| 2026-04-24 20:07 | 39.04819 | 116.13647 | 19628 ft | 419 kts | 24° |
| 2026-04-24 20:07 | 39.07563 | 116.14982 | 19007 ft | 413 kts | 15° |
| 2026-04-24 20:08 | 39.10362 | 116.15709 | 18387 ft | 407 kts | 6° |
| 2026-04-24 20:08 | 39.12577 | 116.15941 | 17924 ft | 402 kts | 1° |
| 2026-04-24 20:08 | 39.15486 | 116.15915 | 17319 ft | 396 kts | 356° |
| 2026-04-24 20:08 | 39.18246 | 116.15627 | 16709 ft | 391 kts | 353° |
| 2026-04-24 20:09 | 39.20946 | 116.15212 | 16123 ft | 387 kts | 352° |
| 2026-04-24 20:09 | 39.23591 | 116.14758 | 15543 ft | 382 kts | 351° |
| 2026-04-24 20:09 | 39.26265 | 116.14294 | 14960 ft | 378 kts | 351° |
| 2026-04-24 20:09 | 39.28880 | 116.13854 | 14367 ft | 374 kts | 351° |
| 2026-04-24 20:10 | 39.31492 | 116.13430 | 13794 ft | 370 kts | 352° |
| 2026-04-24 20:10 | 39.34016 | 116.13030 | 13214 ft | 367 kts | 352° |
| 2026-04-24 20:10 | 39.36591 | 116.12630 | 12622 ft | 364 kts | 352° |
| 2026-04-24 20:10 | 39.39135 | 116.12238 | 12045 ft | 360 kts | 352° |
| 2026-04-24 20:11 | 39.41631 | 116.11855 | 11459 ft | 359 kts | 352° |
| 2026-04-24 20:11 | 39.44152 | 116.11466 | 11081 ft | 367 kts | 352° |
| 2026-04-24 20:11 | 39.46696 | 116.11075 | 10845 ft | 356 kts | 352° |
| 2026-04-24 20:11 | 39.49120 | 116.10702 | 10716 ft | 341 kts | 352° |
| 2026-04-24 20:12 | 39.51447 | 116.10346 | 10563 ft | 327 kts | 352° |
| 2026-04-24 20:12 | 39.53666 | 116.10009 | 10417 ft | 314 kts | 352° |
| 2026-04-24 20:12 | 39.55845 | 116.09678 | 10267 ft | 302 kts | 352° |
| 2026-04-24 20:12 | 39.57894 | 116.09364 | 10138 ft | 290 kts | 352° |
| 2026-04-24 20:13 | 39.59909 | 116.09052 | 9898 ft | 284 kts | 352° |
| 2026-04-24 20:13 | 39.61884 | 116.08748 | 9507 ft | 284 kts | 352° |
| 2026-04-24 20:13 | 39.63863 | 116.08443 | 9142 ft | 282 kts | 352° |
| 2026-04-24 20:13 | 39.65807 | 116.08145 | 8796 ft | 281 kts | 352° |
| 2026-04-24 20:14 | 39.67760 | 116.07845 | 8439 ft | 279 kts | 352° |
| 2026-04-24 20:14 | 39.69696 | 116.07549 | 8086 ft | 278 kts | 352° |
| 2026-04-24 20:14 | 39.71640 | 116.07269 | 7741 ft | 276 kts | 354° |
| 2026-04-24 20:14 | 39.73548 | 116.07340 | 7387 ft | 276 kts | 12° |
| 2026-04-24 20:15 | 39.75269 | 116.08437 | 7056 ft | 275 kts | 41° |
| 2026-04-24 20:15 | 39.76380 | 116.10424 | 6733 ft | 272 kts | 66° |
| 2026-04-24 20:15 | 39.76922 | 116.12799 | 6394 ft | 271 kts | 80° |
| 2026-04-24 20:15 | 39.77190 | 116.15215 | 6165 ft | 265 kts | 84° |
| 2026-04-24 20:16 | 39.77386 | 116.17552 | 6079 ft | 254 kts | 85° |
| 2026-04-24 20:16 | 39.77573 | 116.19780 | 6005 ft | 243 kts | 84° |
| 2026-04-24 20:16 | 39.77765 | 116.21947 | 5920 ft | 233 kts | 84° |
| 2026-04-24 20:16 | 39.77951 | 116.23987 | 5746 ft | 227 kts | 84° |
| 2026-04-24 20:17 | 39.78134 | 116.26022 | 5519 ft | 222 kts | 84° |
| 2026-04-24 20:17 | 39.78276 | 116.29981 | 5127 ft | 214 kts | 108° |
| 2026-04-24 20:17 | 39.77509 | 116.31538 | 4963 ft | 201 kts | 142° |
| 2026-04-24 20:18 | 39.76740 | 116.32195 | 4814 ft | 197 kts | 151° |
| 2026-04-24 20:18 | 39.75110 | 116.33328 | 4341 ft | 199 kts | 152° |
| 2026-04-24 20:18 | 39.73887 | 116.34167 | 4011 ft | 199 kts | 152° |
| 2026-04-24 20:18 | 39.72669 | 116.35000 | 3971 ft | 196 kts | 152° |
| 2026-04-24 20:19 | 39.71435 | 116.35841 | 3975 ft | 199 kts | 153° |
| 2026-04-24 20:19 | 39.70500 | 116.36481 | 3977 ft | 198 kts | 152° |
| 2026-04-24 20:20 | 39.69383 | 116.37248 | 3978 ft | 199 kts | 152° |
| 2026-04-24 20:20 | 39.68165 | 116.38088 | 3976 ft | 199 kts | 152° |
| 2026-04-24 20:21 | 39.66922 | 116.38952 | 3636 ft | 205 kts | 151° |
| 2026-04-24 20:21 | 39.65669 | 116.39887 | 3230 ft | 207 kts | 154° |
| 2026-04-24 20:21 | 39.64311 | 116.40430 | 2932 ft | 203 kts | 171° |
| 2026-04-24 20:21 | 39.62913 | 116.40655 | 2644 ft | 195 kts | 174° |
| 2026-04-24 20:22 | 39.61605 | 116.40838 | 2384 ft | 182 kts | 173° |
| 2026-04-24 20:22 | 39.60352 | 116.41040 | 2136 ft | 179 kts | 173° |
| 2026-04-24 20:22 | 39.59125 | 116.41238 | 1911 ft | 171 kts | 174° |
| 2026-04-24 20:22 | 39.57975 | 116.41419 | 1651 ft | 158 kts | 174° |
| 2026-04-24 20:23 | 39.56910 | 116.41588 | 1486 ft | 146 kts | 173° |
| 2026-04-24 20:23 | 39.55887 | 116.41749 | 1252 ft | 146 kts | 173° |
| 2026-04-24 20:23 | 39.54879 | 116.41909 | 1059 ft | 145 kts | 174° |
| 2026-04-24 20:23 | 39.53859 | 116.42070 | 855 ft | 146 kts | 174° |
| 2026-04-24 20:24 | 39.53179 | 116.42170 | 721 ft | 147 kts | 174° |
| 2026-04-24 20:24 | 39.51834 | 116.42390 | 466 ft | 146 kts | 174° |
| 2026-04-24 20:24 | 39.50806 | 116.42552 | 275 ft | 147 kts | 174° |
| 2026-04-24 20:24 | 39.49780 | 116.42715 | 104 ft | 145 kts | 173° |
| 2026-04-24 20:25 | 39.48890 | 116.42854 | 90 ft | 98 kts | 173° |
| 2026-04-24 20:25 | 39.48420 | 116.42929 | 90 ft | 45 kts | 173° |
| 2026-04-24 20:25 | 39.48124 | 116.42915 | 90 ft | 35 kts | 199° |
| 2026-04-24 20:25 | 39.48006 | 116.42795 | 90 ft | 17 kts | 300° |
| 2026-04-24 20:26 | 39.48120 | 116.42756 | 90 ft | 17 kts | 353° |
| 2026-04-24 20:26 | 39.48237 | 116.42736 | 90 ft | 16 kts | 354° |
| 2026-04-24 20:26 | 39.48350 | 116.42718 | 90 ft | 16 kts | 352° |
| 2026-04-24 20:26 | 39.48472 | 116.42699 | 90 ft | 21 kts | 350° |
| 2026-04-24 20:27 | 39.48663 | 116.42671 | 90 ft | 32 kts | 352° |
| 2026-04-24 20:27 | 39.48897 | 116.42633 | 90 ft | 34 kts | 351° |
| 2026-04-24 20:27 | 39.49147 | 116.42595 | 90 ft | 35 kts | 352° |
| 2026-04-24 20:27 | 39.49370 | 116.42558 | 90 ft | 28 kts | 349° |
| 2026-04-24 20:28 | 39.49540 | 116.42427 | 90 ft | 26 kts | 330° |
| 2026-04-24 20:28 | 39.49730 | 116.42386 | 90 ft | 28 kts | 353° |
| 2026-04-24 20:28 | 39.49936 | 116.42355 | 90 ft | 30 kts | 353° |
| 2026-04-24 20:28 | 39.50113 | 116.42327 | 90 ft | 17 kts | 353° |
| 2026-04-24 20:29 | 39.50197 | 116.42313 | 90 ft | 18 kts | 353° |
| 2026-04-24 20:29 | 39.50294 | 116.42179 | 90 ft | 19 kts | 260° |
| 2026-04-24 20:29 | 39.50276 | 116.41988 | 90 ft | 22 kts | 262° |
| 2026-04-24 20:29 | 39.50255 | 116.41778 | 90 ft | 24 kts | 263° |
| 2026-04-24 20:30 | 39.50235 | 116.41557 | 90 ft | 17 kts | 264° |
| 2026-04-24 20:30 | 39.50304 | 116.41462 | 90 ft | 18 kts | 352° |
| 2026-04-24 20:30 | 39.50417 | 116.41415 | 90 ft | 15 kts | 306° |
| 2026-04-24 20:30 | 39.50454 | 116.41336 | 90 ft | 0 kts | 301° |
| 2026-04-24 20:31 | 39.50465 | 116.41312 | 90 ft | 0 kts | 300° |
| 2026-04-24 20:31 | 39.50466 | 116.41312 | 90 ft | 0 kts | 300° |